createdAt,value
2022-08-22T00:02:10.615Z,20.24
2022-08-22T00:02:56.593Z,21.30
2022-08-22T00:02:58.482Z,22.74
2022-08-22T00:03:00.232Z,23.40
2022-08-22T00:03:06.552Z,20.52
2022-08-22T00:03:08.827Z,20.52
2022-08-22T00:04:56.792Z,20.25
2022-08-22T00:07:50.329Z,20.24
2022-08-22T00:10:54.211Z,20.24
2022-08-22T00:13:40.873Z,20.23
2022-08-22T00:16:29.836Z,20.19
2022-08-22T00:19:25.807Z,20.15
2022-08-22T00:22:18.040Z,20.14
2022-08-22T00:25:25.829Z,20.12
2022-08-22T00:28:17.986Z,20.12
2022-08-22T00:31:16.746Z,20.12
2022-08-22T00:33:53.389Z,20.08
2022-08-22T00:36:25.674Z,20.05
2022-08-22T00:39:03.482Z,20.06
2022-08-22T00:41:45.005Z,20.06
2022-08-22T00:44:42.978Z,20.05
2022-08-22T00:47:33.968Z,20.03
2022-08-22T00:50:27.505Z,20.02
2022-08-22T00:53:17.503Z,20.02
2022-08-22T00:56:01.151Z,19.99
2022-08-22T00:59:10.627Z,19.98
2022-08-22T01:02:07.357Z,19.93
2022-08-22T01:05:09.738Z,19.90
2022-08-22T01:07:59.572Z,19.87
2022-08-22T01:10:44.582Z,19.85
2022-08-22T01:13:31.397Z,19.85
2022-08-22T01:16:28.032Z,19.82
2022-08-22T01:19:27.034Z,19.83
2022-08-22T01:22:24.889Z,19.83
2022-08-22T01:25:18.267Z,19.84
2022-08-22T01:28:02.874Z,19.86
2022-08-22T01:30:47.313Z,19.83
2022-08-22T01:33:37.934Z,19.83
2022-08-22T01:36:24.853Z,19.81
2022-08-22T01:39:12.969Z,19.79
2022-08-22T01:42:05.455Z,19.78
2022-08-22T01:45:11.295Z,19.77
2022-08-22T01:48:02.605Z,19.78
2022-08-22T01:50:45.577Z,19.77
2022-08-22T01:53:39.533Z,19.78
2022-08-22T01:56:15.101Z,19.79
2022-08-22T01:59:01.636Z,19.79
2022-08-22T02:01:49.823Z,19.78
2022-08-22T02:04:28.698Z,19.75
2022-08-22T02:07:31.846Z,19.74
2022-08-22T02:10:15.633Z,19.72
2022-08-22T02:12:45.553Z,19.71
2022-08-22T02:15:18.350Z,19.71
2022-08-22T02:17:54.744Z,19.68
2022-08-22T02:20:26.113Z,19.66
2022-08-22T02:23:08.570Z,19.66
2022-08-22T02:25:52.780Z,19.64
2022-08-22T02:28:37.928Z,19.63
2022-08-22T02:31:17.104Z,19.64
2022-08-22T02:33:46.555Z,19.64
2022-08-22T02:36:22.494Z,19.65
2022-08-22T02:38:54.524Z,19.56
2022-08-22T02:41:40.893Z,19.36
2022-08-22T02:44:24.354Z,19.28
2022-08-22T02:47:00.025Z,19.28
2022-08-22T02:50:00.270Z,19.27
2022-08-22T02:52:45.304Z,19.48
2022-08-22T02:55:21.241Z,19.59
2022-08-22T02:58:00.936Z,19.47
2022-08-22T03:00:31.565Z,19.41
2022-08-22T03:02:59.313Z,19.58
2022-08-22T03:05:28.583Z,19.57
2022-08-22T03:08:07.175Z,19.64
2022-08-22T03:10:39.349Z,19.63
2022-08-22T03:13:16.547Z,19.64
2022-08-22T03:15:55.662Z,19.64
2022-08-22T03:18:40.886Z,19.64
2022-08-22T03:21:22.054Z,19.65
2022-08-22T03:23:55.637Z,19.64
2022-08-22T03:26:41.840Z,19.63
2022-08-22T03:29:15.407Z,19.64
2022-08-22T03:32:13.032Z,19.63
2022-08-22T03:34:55.082Z,19.63
2022-08-22T03:37:31.700Z,19.57
2022-08-22T03:40:20.227Z,19.58
2022-08-22T03:43:17.957Z,19.57
2022-08-22T03:45:53.576Z,19.53
2022-08-22T03:48:38.752Z,19.51
2022-08-22T03:51:29.516Z,19.48
2022-08-22T03:54:44.005Z,19.43
2022-08-22T03:57:40.916Z,19.36
2022-08-22T04:00:35.820Z,19.35
2022-08-22T04:03:42.338Z,19.36
2022-08-22T04:06:45.657Z,19.37
2022-08-22T04:09:35.622Z,19.37
2022-08-22T04:12:17.694Z,19.37
2022-08-22T04:15:08.784Z,19.35
2022-08-22T04:18:03.263Z,19.37
2022-08-22T04:21:06.217Z,19.38
2022-08-22T04:23:57.680Z,19.35
2022-08-22T04:26:35.400Z,19.34
2022-08-22T04:29:16.872Z,19.35
2022-08-22T04:32:14.571Z,19.32
2022-08-22T04:34:53.080Z,19.28
2022-08-22T04:38:12.239Z,19.25
2022-08-22T04:40:52.220Z,19.19
2022-08-22T04:43:34.202Z,19.17
2022-08-22T04:46:11.242Z,19.16
2022-08-22T04:48:45.002Z,19.16
2022-08-22T04:51:33.172Z,19.16
2022-08-22T04:54:24.275Z,19.17
2022-08-22T04:57:05.645Z,19.19
2022-08-22T04:59:33.593Z,19.19
2022-08-22T05:02:06.274Z,19.21
2022-08-22T05:04:41.618Z,19.19
2022-08-22T05:07:18.557Z,19.19
2022-08-22T05:10:01.129Z,19.20
2022-08-22T05:12:43.541Z,19.20
2022-08-22T05:15:24.365Z,19.21
2022-08-22T05:17:58.012Z,19.21
2022-08-22T05:20:27.858Z,19.23
2022-08-22T05:23:17.606Z,19.23
2022-08-22T05:25:46.520Z,19.23
2022-08-22T05:28:26.896Z,19.24
2022-08-22T05:30:54.490Z,19.26
2022-08-22T05:33:29.935Z,19.19
2022-08-22T05:36:06.255Z,19.21
2022-08-22T05:38:37.963Z,19.21
2022-08-22T05:41:16.977Z,19.25
2022-08-22T05:43:44.580Z,19.31
2022-08-22T05:46:34.979Z,19.36
2022-08-22T05:49:03.899Z,19.40
2022-08-22T05:51:40.254Z,19.39
2022-08-22T05:54:14.300Z,19.40
2022-08-22T05:56:56.928Z,19.42
2022-08-22T05:59:32.840Z,19.42
2022-08-22T06:02:12.403Z,19.46
2022-08-22T06:04:54.659Z,19.50
2022-08-22T06:07:39.913Z,19.52
2022-08-22T06:10:17.663Z,19.58
2022-08-22T06:13:11.549Z,19.65
2022-08-22T06:15:47.284Z,19.68
2022-08-22T06:18:19.529Z,19.72
2022-08-22T06:20:54.681Z,19.76
2022-08-22T06:23:27.934Z,19.76
2022-08-22T06:25:59.329Z,19.81
2022-08-22T06:28:32.481Z,19.87
2022-08-22T06:31:00.939Z,19.94
2022-08-22T06:33:30.874Z,20.00
2022-08-22T06:36:33.646Z,20.02
2022-08-22T06:39:20.782Z,20.00
2022-08-22T06:41:54.588Z,20.00
2022-08-22T06:44:26.072Z,20.05
2022-08-22T06:46:58.350Z,20.07
2022-08-22T06:49:26.726Z,20.09
2022-08-22T06:51:59.901Z,20.18
2022-08-22T06:54:34.282Z,20.28
2022-08-22T06:57:03.461Z,20.41
2022-08-22T06:59:34.437Z,20.51
2022-08-22T07:02:16.441Z,20.62
2022-08-22T07:04:43.822Z,20.69
2022-08-22T07:07:10.395Z,20.76
2022-08-22T07:09:40.268Z,20.82
2022-08-22T07:12:21.762Z,20.94
2022-08-22T07:14:51.872Z,21.04
2022-08-22T07:17:22.633Z,21.02
2022-08-22T07:20:24.231Z,20.99
2022-08-22T07:23:02.529Z,21.20
2022-08-22T07:25:31.609Z,21.31
2022-08-22T07:28:15.904Z,21.45
2022-08-22T07:30:57.498Z,21.62
2022-08-22T07:33:47.146Z,21.71
2022-08-22T07:36:39.985Z,22.01
2022-08-22T07:39:14.001Z,22.24
2022-08-22T07:41:40.379Z,22.43
2022-08-22T07:44:18.085Z,22.66
2022-08-22T07:46:58.480Z,22.74
2022-08-22T07:49:32.422Z,22.75
2022-08-22T07:52:05.377Z,22.77
2022-08-22T07:54:47.188Z,22.61
2022-08-22T07:57:27.348Z,22.47
2022-08-22T07:59:57.949Z,22.33
2022-08-22T08:02:25.748Z,22.31
2022-08-22T08:04:55.059Z,22.32
2022-08-22T08:07:25.483Z,22.30
2022-08-22T08:09:57.763Z,22.39
2022-08-22T08:12:40.438Z,22.55
2022-08-22T08:15:15.235Z,22.77
2022-08-22T08:17:44.402Z,22.92
2022-08-22T08:20:15.994Z,23.09
2022-08-22T08:22:45.516Z,23.14
2022-08-22T08:25:21.375Z,23.30
2022-08-22T08:28:08.290Z,23.44
2022-08-22T08:30:40.602Z,23.33
2022-08-22T08:33:25.547Z,23.54
2022-08-22T08:36:03.927Z,23.86
2022-08-22T08:39:10.115Z,24.31
2022-08-22T08:41:59.552Z,24.80
2022-08-22T08:44:48.511Z,25.10
2022-08-22T08:47:42.340Z,25.40
2022-08-22T08:50:43.820Z,25.26
2022-08-22T08:53:44.137Z,25.62
2022-08-22T08:56:25.545Z,25.76
2022-08-22T09:02:20.429Z,25.84
2022-08-22T09:05:02.826Z,26.13
2022-08-22T09:07:55.525Z,26.25
2022-08-22T09:10:37.301Z,26.11
2022-08-22T09:13:28.133Z,26.26
2022-08-22T09:16:04.829Z,26.11
2022-08-22T09:18:39.101Z,26.14
2022-08-22T09:21:30.815Z,26.00
2022-08-22T09:24:16.789Z,26.14
2022-08-22T09:26:57.120Z,26.05
2022-08-22T09:29:55.346Z,26.27
2022-08-22T09:33:09.685Z,26.45
2022-08-22T09:36:05.126Z,27.18
2022-08-22T09:38:59.777Z,27.11
2022-08-22T09:40:15.241Z,25.79
2022-08-22T09:41:41.383Z,27.45
2022-08-22T09:44:20.150Z,28.00
2022-08-22T09:47:05.285Z,28.41
2022-08-22T09:50:06.485Z,28.33
2022-08-22T09:53:09.257Z,28.13
2022-08-22T09:55:35.910Z,28.11
2022-08-22T09:58:23.389Z,28.06
2022-08-22T10:00:58.407Z,28.27
2022-08-22T10:04:09.599Z,28.10
2022-08-22T10:06:46.076Z,28.50
2022-08-22T10:09:31.543Z,29.16
2022-08-22T10:12:12.927Z,29.80
2022-08-22T10:14:50.627Z,30.10
2022-08-22T10:17:26.995Z,30.32
2022-08-22T10:20:14.394Z,30.65
2022-08-22T10:23:10.490Z,30.75
2022-08-22T10:25:42.502Z,31.09
2022-08-22T10:28:19.257Z,31.21
2022-08-22T10:30:49.026Z,31.53
2022-08-22T10:33:31.601Z,31.45
2022-08-22T10:36:07.940Z,31.23
2022-08-22T10:38:54.663Z,31.10
2022-08-22T10:41:30.464Z,31.08
2022-08-22T10:44:15.002Z,31.25
2022-08-22T10:46:48.509Z,31.36
2022-08-22T10:49:36.372Z,31.27
2022-08-22T10:52:17.744Z,31.55
2022-08-22T10:55:00.665Z,31.76
2022-08-22T10:57:58.992Z,32.05
2022-08-22T11:00:46.193Z,31.80
2022-08-22T11:03:39.569Z,31.94
2022-08-22T11:06:14.594Z,31.68
2022-08-22T11:09:02.472Z,31.75
2022-08-22T11:11:41.758Z,32.46
2022-08-22T11:14:29.939Z,32.31
2022-08-22T11:17:31.077Z,32.26
2022-08-22T11:20:16.461Z,32.34
2022-08-22T11:22:55.740Z,32.38
2022-08-22T11:25:38.580Z,32.72
2022-08-22T11:28:31.242Z,33.04
2022-08-22T11:31:37.770Z,32.84
2022-08-22T11:34:28.022Z,32.67
2022-08-22T11:37:03.999Z,32.72
2022-08-22T11:39:40.919Z,32.89
2022-08-22T11:42:21.940Z,32.68
2022-08-22T11:44:59.473Z,32.25
2022-08-22T11:47:33.631Z,32.37
2022-08-22T11:50:35.202Z,32.53
2022-08-22T11:53:41.945Z,32.35
2022-08-22T11:56:20.138Z,32.92
2022-08-22T11:59:09.675Z,33.22
2022-08-22T12:01:46.784Z,33.72
2022-08-22T12:04:33.668Z,33.84
2022-08-22T12:07:15.998Z,33.58
2022-08-22T12:09:51.906Z,33.93
2022-08-22T12:12:27.676Z,33.69
2022-08-22T12:15:09.001Z,33.86
2022-08-22T12:18:20.003Z,34.14
2022-08-22T12:21:27.968Z,33.97
2022-08-22T12:24:22.850Z,33.32
2022-08-22T12:27:01.769Z,33.16
2022-08-22T12:29:44.775Z,33.21
2022-08-22T12:32:27.746Z,33.55
2022-08-22T12:35:14.117Z,33.21
2022-08-22T12:37:59.596Z,33.09
2022-08-22T12:40:48.089Z,32.49
2022-08-22T12:43:27.359Z,32.63
2022-08-22T12:46:18.022Z,32.62
2022-08-22T12:49:12.608Z,32.75
2022-08-22T12:51:49.878Z,32.90
2022-08-22T12:55:06.625Z,32.80
2022-08-22T12:57:50.334Z,32.48
2022-08-22T13:00:38.016Z,32.37
2022-08-22T13:03:10.798Z,31.99
2022-08-22T13:05:43.687Z,31.90
2022-08-22T13:08:17.547Z,32.15
2022-08-22T13:11:01.411Z,32.34
2022-08-22T13:13:56.598Z,32.22
2022-08-22T13:16:34.241Z,32.31
2022-08-22T13:19:25.389Z,31.74
2022-08-22T13:22:07.178Z,31.65
2022-08-22T13:24:40.297Z,31.38
2022-08-22T13:27:25.505Z,31.42
2022-08-22T13:30:00.774Z,31.03
2022-08-22T13:32:35.289Z,30.89
2022-08-22T13:35:07.555Z,30.87
2022-08-22T13:37:44.130Z,30.88
2022-08-22T13:40:15.375Z,30.72
2022-08-22T13:42:49.287Z,30.54
2022-08-22T13:45:27.254Z,30.38
2022-08-22T13:48:08.873Z,30.47
2022-08-22T13:51:10.539Z,30.64
2022-08-22T13:54:00.522Z,31.00
2022-08-22T13:56:43.526Z,31.12
2022-08-22T13:59:50.167Z,30.85
2022-08-22T14:02:30.798Z,30.94
2022-08-22T14:05:04.253Z,31.40
2022-08-22T14:07:37.126Z,31.72
2022-08-22T14:10:12.602Z,31.82
2022-08-22T14:13:06.079Z,31.90
2022-08-22T14:15:44.940Z,32.11
2022-08-22T14:18:30.360Z,32.38
2022-08-22T14:21:40.604Z,32.77
2022-08-22T14:24:27.070Z,32.75
2022-08-22T14:26:53.821Z,32.92
2022-08-22T14:29:29.072Z,33.19
2022-08-22T14:32:22.704Z,33.35
2022-08-22T14:35:35.053Z,33.20
2022-08-22T14:38:29.789Z,32.74
2022-08-22T14:41:03.614Z,32.28
2022-08-22T14:43:30.028Z,31.93
2022-08-22T14:46:03.939Z,31.70
2022-08-22T14:48:40.634Z,31.73
2022-08-22T14:51:18.327Z,31.81
2022-08-22T14:53:48.266Z,31.84
2022-08-22T14:56:21.562Z,31.82
2022-08-22T14:58:59.848Z,31.67
2022-08-22T15:01:29.928Z,31.45
2022-08-22T15:04:11.222Z,31.21
2022-08-22T15:06:50.750Z,31.21
2022-08-22T15:09:31.139Z,31.20
2022-08-22T15:11:58.088Z,31.07
2022-08-22T15:14:48.889Z,30.18
2022-08-22T15:17:35.576Z,30.25
2022-08-22T15:20:36.392Z,30.16
2022-08-22T15:23:22.934Z,30.06
2022-08-22T15:26:23.671Z,30.07
2022-08-22T15:29:02.226Z,29.98
2022-08-22T15:31:31.445Z,29.76
2022-08-22T15:34:08.036Z,29.60
2022-08-22T15:36:36.027Z,29.55
2022-08-22T15:39:35.250Z,29.45
2022-08-22T15:42:05.182Z,29.51
2022-08-22T15:44:35.464Z,29.53
2022-08-22T15:47:27.763Z,29.57
2022-08-22T15:50:02.316Z,29.48
2022-08-22T15:52:35.758Z,29.54
2022-08-22T15:55:15.884Z,29.37
2022-08-22T15:57:50.964Z,29.37
2022-08-22T16:00:31.271Z,29.25
2022-08-22T16:03:03.849Z,29.24
2022-08-22T16:05:55.479Z,29.30
2022-08-22T16:08:37.237Z,29.12
2022-08-22T16:11:03.633Z,28.98
2022-08-22T16:13:30.125Z,28.89
2022-08-22T16:16:06.935Z,28.91
2022-08-22T16:18:33.431Z,28.84
2022-08-22T16:21:07.988Z,28.82
2022-08-22T16:23:57.946Z,28.55
2022-08-22T16:26:31.321Z,28.57
2022-08-22T16:29:03.517Z,28.36
2022-08-22T16:31:42.710Z,28.41
2022-08-22T16:34:23.818Z,28.36
2022-08-22T16:37:08.897Z,28.31
2022-08-22T16:39:48.877Z,28.28
2022-08-22T16:42:15.645Z,28.11
2022-08-22T16:44:47.797Z,28.01
2022-08-22T16:47:21.394Z,27.92
2022-08-22T16:49:51.045Z,27.88
2022-08-22T16:52:20.756Z,27.82
2022-08-22T16:54:58.635Z,27.79
2022-08-22T16:58:05.741Z,27.63
2022-08-22T17:00:51.037Z,27.65
2022-08-22T17:03:40.462Z,27.60
2022-08-22T17:06:32.117Z,27.58
2022-08-22T17:09:20.110Z,27.59
2022-08-22T17:12:26.011Z,27.57
2022-08-22T17:14:55.109Z,27.58
2022-08-22T17:17:21.611Z,27.57
2022-08-22T17:20:12.556Z,27.45
2022-08-22T17:23:01.608Z,27.36
2022-08-22T17:25:36.410Z,27.31
2022-08-22T17:28:05.529Z,27.25
2022-08-22T17:30:45.935Z,27.23
2022-08-22T17:33:48.805Z,27.13
2022-08-22T17:36:32.513Z,27.09
2022-08-22T17:39:10.128Z,27.04
2022-08-22T17:41:36.592Z,27.01
2022-08-22T17:44:11.915Z,26.91
2022-08-22T17:47:00.768Z,26.85
2022-08-22T17:49:48.631Z,26.84
2022-08-22T17:52:30.314Z,26.75
2022-08-22T17:55:27.250Z,26.65
2022-08-22T17:58:03.472Z,26.64
2022-08-22T18:00:37.174Z,26.61
2022-08-22T18:03:22.878Z,26.54
2022-08-22T18:06:05.879Z,26.50
2022-08-22T18:08:38.447Z,26.42
2022-08-22T18:11:28.135Z,26.38
2022-08-22T18:13:57.677Z,26.36
2022-08-22T18:16:34.897Z,26.30
2022-08-22T18:19:15.461Z,26.21
2022-08-22T18:21:58.223Z,26.15
2022-08-22T18:24:34.650Z,26.14
2022-08-22T18:27:32.605Z,26.13
2022-08-22T18:30:04.979Z,26.08
2022-08-22T18:32:41.217Z,26.03
2022-08-22T18:35:28.928Z,25.99
2022-08-22T18:38:19.310Z,25.91
2022-08-22T18:40:53.363Z,25.83
2022-08-22T18:43:45.023Z,25.79
2022-08-22T18:46:37.439Z,25.73
2022-08-22T18:49:24.102Z,25.69
2022-08-22T18:52:07.082Z,25.67
2022-08-22T18:54:47.957Z,25.62
2022-08-22T18:57:31.424Z,25.55
2022-08-22T19:00:16.636Z,25.46
2022-08-22T19:03:03.400Z,25.40
2022-08-22T19:06:07.342Z,25.37
2022-08-22T19:08:48.361Z,25.35
2022-08-22T19:11:52.528Z,25.35
2022-08-22T19:14:43.901Z,25.34
2022-08-22T19:17:31.940Z,25.29
2022-08-22T19:20:41.161Z,25.25
2022-08-22T19:23:37.061Z,25.16
2022-08-22T19:26:22.990Z,25.09
2022-08-22T19:28:55.965Z,25.00
2022-08-22T19:31:41.685Z,24.93
2022-08-22T19:34:29.482Z,24.88
2022-08-22T19:37:30.509Z,24.80
2022-08-22T19:40:29.295Z,24.73
2022-08-22T19:42:56.360Z,24.67
2022-08-22T19:45:28.747Z,24.66
2022-08-22T19:48:09.414Z,24.61
2022-08-22T19:50:39.094Z,24.58
2022-08-22T19:53:11.299Z,24.56
2022-08-22T19:55:37.719Z,24.53
2022-08-22T19:58:32.928Z,24.53
2022-08-22T20:01:30.809Z,24.52
2022-08-22T20:04:23.207Z,24.49
2022-08-22T20:07:25.013Z,24.46
2022-08-22T20:10:25.708Z,24.40
2022-08-22T20:12:52.190Z,24.34
2022-08-22T20:15:22.991Z,24.31
2022-08-22T20:20:56.061Z,24.17
2022-08-22T20:23:30.708Z,24.09
2022-08-22T20:25:58.586Z,24.00
2022-08-22T20:28:44.367Z,23.96
2022-08-22T20:31:20.845Z,23.90
2022-08-22T20:33:52.868Z,23.87
2022-08-22T20:36:27.938Z,23.84
2022-08-22T20:39:05.859Z,23.84
2022-08-22T20:41:40.302Z,23.74
2022-08-22T20:44:28.663Z,23.71
2022-08-22T20:47:04.435Z,23.67
2022-08-22T20:49:43.104Z,23.60
2022-08-22T20:52:26.251Z,23.55
2022-08-22T20:55:11.765Z,23.53
2022-08-22T20:57:51.103Z,23.46
2022-08-22T21:00:23.356Z,23.46
2022-08-22T21:03:07.487Z,23.46
2022-08-22T21:05:44.301Z,23.43
2022-08-22T21:08:24.161Z,23.39
2022-08-22T21:11:24.593Z,23.34
2022-08-22T21:13:52.090Z,23.29
2022-08-22T21:16:31.960Z,23.26
2022-08-22T21:19:01.517Z,23.21
2022-08-22T21:21:31.729Z,23.18
2022-08-22T21:24:05.604Z,23.12
2022-08-22T21:26:55.938Z,23.08
2022-08-22T21:29:32.693Z,23.04
2022-08-22T21:32:08.006Z,22.98
2022-08-22T21:34:41.224Z,22.94
2022-08-22T21:37:14.336Z,22.86
2022-08-22T21:39:47.932Z,22.81
2022-08-22T21:42:35.319Z,22.77
2022-08-22T21:45:06.523Z,22.75
2022-08-22T21:47:37.014Z,22.71
2022-08-22T21:50:12.586Z,22.62
2022-08-22T21:52:43.941Z,22.58
2022-08-22T21:55:26.224Z,22.56
2022-08-22T21:58:03.923Z,22.41
2022-08-22T22:00:48.839Z,22.38
2022-08-22T22:03:18.806Z,22.32
2022-08-22T22:05:45.786Z,22.32
2022-08-22T22:08:13.237Z,22.26
2022-08-22T22:10:42.653Z,22.27
2022-08-22T22:13:10.396Z,22.22
2022-08-22T22:15:42.302Z,22.17
2022-08-22T22:18:09.806Z,22.14
2022-08-22T22:20:36.789Z,22.10
2022-08-22T22:23:03.541Z,22.08
2022-08-22T22:25:39.737Z,22.03
2022-08-22T22:28:14.011Z,21.99
2022-08-22T22:30:42.016Z,21.96
2022-08-22T22:33:08.581Z,21.93
2022-08-22T22:35:37.921Z,21.91
2022-08-22T22:38:04.768Z,21.89
2022-08-22T22:40:31.392Z,21.87
2022-08-22T22:42:57.932Z,21.85
2022-08-22T22:45:24.404Z,21.82
2022-08-22T22:47:54.077Z,21.77
2022-08-22T22:50:20.585Z,21.76
2022-08-22T22:52:47.031Z,21.76
2022-08-22T22:55:24.220Z,21.75
2022-08-22T22:57:51.182Z,21.75
2022-08-22T23:00:30.664Z,21.75
2022-08-22T23:02:59.565Z,21.75
2022-08-22T23:05:26.001Z,21.71
2022-08-22T23:07:52.491Z,21.66
2022-08-22T23:10:22.119Z,21.59
2022-08-22T23:12:48.983Z,21.58
2022-08-22T23:15:15.573Z,21.54
2022-08-22T23:17:42.556Z,21.52
2022-08-22T23:20:09.345Z,21.48
2022-08-22T23:22:36.115Z,21.43
2022-08-22T23:25:02.659Z,21.39
2022-08-22T23:27:30.919Z,21.33
2022-08-22T23:29:57.398Z,21.24
2022-08-22T23:32:23.933Z,21.21
2022-08-22T23:34:51.213Z,21.16
2022-08-22T23:37:21.130Z,21.12
2022-08-22T23:39:50.281Z,21.01
2022-08-22T23:42:18.085Z,21.16
2022-08-22T23:44:45.885Z,21.16
2022-08-22T23:47:14.134Z,21.13
2022-08-22T23:49:41.818Z,21.10
2022-08-22T23:52:10.450Z,21.07
2022-08-22T23:54:37.064Z,21.05
2022-08-22T23:57:11.876Z,21.02
2022-08-22T23:59:46.231Z,20.99
